KCAD

Wexford County Airport

Cadillac, Michigan, USA
METAR KCAD 141335Z AUTO 24004KT 10SM CLR 21/20 A2998 RMK AO2 T02180199
Observed Flight Rules
Aug-14 @ 13:35 UTC (6 minutes ago) Visual Flight Rules
Wind Visibility Clouds
240° at 4 knots 10 miles
  • Clear skies
Temperatures Readings
Current 22°C / 72°F
Dewpoint 20°C / 68°F
Humidity 88%
Altimeter 29.98" Hg
Pressure 1015 hPa
Elevation 398
METAR KCAD 141335Z AUTO 24004KT 10SM CLR 21/20 A2998 RMK AO2 T02180199
Observed Flight Rules
Aug-14 @ 13:35 UTC
(6 minutes ago)
VFR
Wind Visibility
240° at 4 knots 10 miles
Clouds
  • Clear skies
Temperature Dewpoint
22°C / 72°F 20°C / 68°F
Humidity Altimeter Pressure
88% 29.98" Hg 1015 hPa